sensor_id;sensor_type;location;lat;lon;timestamp;P1;durP1;ratioP1;P2;durP2;ratioP2
3036;SDS011;1528;52.550;13.408;2023-03-23T00:01:19;19.97;;;19.27;;
3036;SDS011;1528;52.550;13.408;2023-03-23T00:04:08;21.37;;;20.67;;
3036;SDS011;1528;52.550;13.408;2023-03-23T00:06:56;19.20;;;18.33;;
3036;SDS011;1528;52.550;13.408;2023-03-23T00:09:45;16.30;;;15.60;;
3036;SDS011;1528;52.550;13.408;2023-03-23T00:12:31;21.10;;;20.40;;
3036;SDS011;1528;52.550;13.408;2023-03-23T00:15:18;18.70;;;18.10;;
3036;SDS011;1528;52.550;13.408;2023-03-23T00:18:03;15.90;;;15.40;;
3036;SDS011;1528;52.550;13.408;2023-03-23T00:20:49;19.10;;;18.50;;
3036;SDS011;1528;52.550;13.408;2023-03-23T00:23:36;20.83;;;20.13;;
3036;SDS011;1528;52.550;13.408;2023-03-23T00:26:24;20.40;;;19.70;;
3036;SDS011;1528;52.550;13.408;2023-03-23T00:29:14;17.97;;;17.27;;
3036;SDS011;1528;52.550;13.408;2023-03-23T00:32:02;20.90;;;20.17;;
3036;SDS011;1528;52.550;13.408;2023-03-23T00:34:48;18.80;;;18.20;;
3036;SDS011;1528;52.550;13.408;2023-03-23T00:37:34;17.80;;;17.20;;
3036;SDS011;1528;52.550;13.408;2023-03-23T00:40:19;15.80;;;15.00;;
3036;SDS011;1528;52.550;13.408;2023-03-23T00:43:06;16.43;;;15.77;;
3036;SDS011;1528;52.550;13.408;2023-03-23T00:45:52;18.23;;;17.50;;
3036;SDS011;1528;52.550;13.408;2023-03-23T00:48:38;19.37;;;18.77;;
3036;SDS011;1528;52.550;13.408;2023-03-23T00:51:28;17.90;;;17.30;;
3036;SDS011;1528;52.550;13.408;2023-03-23T00:54:13;19.40;;;18.80;;
3036;SDS011;1528;52.550;13.408;2023-03-23T00:56:59;17.53;;;16.73;;
3036;SDS011;1528;52.550;13.408;2023-03-23T00:59:46;18.47;;;17.87;;
3036;SDS011;1528;52.550;13.408;2023-03-23T01:02:32;16.97;;;16.23;;
3036;SDS011;1528;52.550;13.408;2023-03-23T01:05:19;17.57;;;16.97;;
3036;SDS011;1528;52.550;13.408;2023-03-23T01:08:05;16.33;;;15.73;;
3036;SDS011;1528;52.550;13.408;2023-03-23T01:10:52;16.50;;;15.80;;
3036;SDS011;1528;52.550;13.408;2023-03-23T01:13:48;15.37;;;14.77;;
3036;SDS011;1528;52.550;13.408;2023-03-23T01:16:35;16.97;;;16.37;;
3036;SDS011;1528;52.550;13.408;2023-03-23T01:19:20;17.70;;;17.10;;
3036;SDS011;1528;52.550;13.408;2023-03-23T01:22:06;17.27;;;16.67;;
3036;SDS011;1528;52.550;13.408;2023-03-23T01:24:52;14.87;;;14.37;;
3036;SDS011;1528;52.550;13.408;2023-03-23T01:27:37;16.50;;;15.80;;
3036;SDS011;1528;52.550;13.408;2023-03-23T01:30:24;22.10;;;21.20;;
3036;SDS011;1528;52.550;13.408;2023-03-23T01:33:11;21.67;;;20.97;;
3036;SDS011;1528;52.550;13.408;2023-03-23T01:35:57;17.40;;;16.60;;
3036;SDS011;1528;52.550;13.408;2023-03-23T01:38:44;15.50;;;14.80;;
3036;SDS011;1528;52.550;13.408;2023-03-23T01:41:32;14.00;;;13.50;;
3036;SDS011;1528;52.550;13.408;2023-03-23T01:47:42;15.67;;;15.17;;
3036;SDS011;1528;52.550;13.408;2023-03-23T01:50:30;14.73;;;14.13;;
3036;SDS011;1528;52.550;13.408;2023-03-23T01:53:19;14.10;;;13.60;;
3036;SDS011;1528;52.550;13.408;2023-03-23T01:56:06;16.93;;;16.33;;
3036;SDS011;1528;52.550;13.408;2023-03-23T01:58:54;17.97;;;17.20;;
3036;SDS011;1528;52.550;13.408;2023-03-23T02:01:41;18.57;;;17.87;;
3036;SDS011;1528;52.550;13.408;2023-03-23T02:04:28;16.00;;;15.50;;
3036;SDS011;1528;52.550;13.408;2023-03-23T02:07:17;18.70;;;18.10;;
3036;SDS011;1528;52.550;13.408;2023-03-23T02:10:05;17.50;;;16.73;;
3036;SDS011;1528;52.550;13.408;2023-03-23T02:12:51;17.13;;;16.57;;
3036;SDS011;1528;52.550;13.408;2023-03-23T02:15:39;20.63;;;19.97;;
3036;SDS011;1528;52.550;13.408;2023-03-23T02:18:41;19.10;;;18.27;;
3036;SDS011;1528;52.550;13.408;2023-03-23T02:21:40;18.53;;;17.93;;
3036;SDS011;1528;52.550;13.408;2023-03-23T02:24:55;18.03;;;17.43;;
3036;SDS011;1528;52.550;13.408;2023-03-23T02:27:51;19.67;;;18.97;;
3036;SDS011;1528;52.550;13.408;2023-03-23T02:30:56;19.30;;;18.70;;
3036;SDS011;1528;52.550;13.408;2023-03-23T02:33:53;16.90;;;16.40;;
3036;SDS011;1528;52.550;13.408;2023-03-23T02:36:44;14.83;;;14.13;;
3036;SDS011;1528;52.550;13.408;2023-03-23T02:39:35;15.90;;;15.40;;
3036;SDS011;1528;52.550;13.408;2023-03-23T02:42:26;16.20;;;15.63;;
3036;SDS011;1528;52.550;13.408;2023-03-23T02:45:17;16.40;;;15.80;;
3036;SDS011;1528;52.550;13.408;2023-03-23T02:48:04;18.93;;;18.27;;
3036;SDS011;1528;52.550;13.408;2023-03-23T02:50:53;17.13;;;16.40;;
3036;SDS011;1528;52.550;13.408;2023-03-23T02:53:40;16.93;;;16.00;;
3036;SDS011;1528;52.550;13.408;2023-03-23T02:56:28;20.50;;;19.70;;
3036;SDS011;1528;52.550;13.408;2023-03-23T02:59:14;19.70;;;19.10;;
3036;SDS011;1528;52.550;13.408;2023-03-23T03:02:04;18.07;;;17.47;;
3036;SDS011;1528;52.550;13.408;2023-03-23T03:04:56;23.73;;;23.03;;
3036;SDS011;1528;52.550;13.408;2023-03-23T03:07:50;23.67;;;22.87;;
3036;SDS011;1528;52.550;13.408;2023-03-23T03:10:45;17.77;;;17.13;;
3036;SDS011;1528;52.550;13.408;2023-03-23T03:13:37;24.20;;;23.30;;
3036;SDS011;1528;52.550;13.408;2023-03-23T03:16:32;19.93;;;19.23;;
3036;SDS011;1528;52.550;13.408;2023-03-23T03:19:23;23.00;;;22.30;;
3036;SDS011;1528;52.550;13.408;2023-03-23T03:22:11;21.60;;;21.00;;
3036;SDS011;1528;52.550;13.408;2023-03-23T03:24:59;20.03;;;19.43;;
3036;SDS011;1528;52.550;13.408;2023-03-23T03:27:46;23.53;;;22.73;;
3036;SDS011;1528;52.550;13.408;2023-03-23T03:30:35;22.57;;;21.87;;
3036;SDS011;1528;52.550;13.408;2023-03-23T03:33:23;18.53;;;17.83;;
3036;SDS011;1528;52.550;13.408;2023-03-23T03:36:14;19.73;;;19.07;;
3036;SDS011;1528;52.550;13.408;2023-03-23T03:39:02;21.20;;;20.53;;
3036;SDS011;1528;52.550;13.408;2023-03-23T03:41:52;21.27;;;20.57;;
3036;SDS011;1528;52.550;13.408;2023-03-23T03:44:39;23.23;;;22.33;;
3036;SDS011;1528;52.550;13.408;2023-03-23T03:47:24;20.30;;;19.70;;
3036;SDS011;1528;52.550;13.408;2023-03-23T03:50:10;25.60;;;24.80;;
3036;SDS011;1528;52.550;13.408;2023-03-23T03:52:56;24.57;;;23.30;;
3036;SDS011;1528;52.550;13.408;2023-03-23T03:55:41;20.50;;;19.80;;
3036;SDS011;1528;52.550;13.408;2023-03-23T03:58:30;20.90;;;20.20;;
3036;SDS011;1528;52.550;13.408;2023-03-23T04:01:16;23.30;;;22.40;;
3036;SDS011;1528;52.550;13.408;2023-03-23T04:04:05;18.80;;;18.20;;
3036;SDS011;1528;52.550;13.408;2023-03-23T04:06:51;20.97;;;19.97;;
3036;SDS011;1528;52.550;13.408;2023-03-23T04:09:36;15.70;;;15.10;;
3036;SDS011;1528;52.550;13.408;2023-03-23T04:12:22;23.73;;;22.93;;
3036;SDS011;1528;52.550;13.408;2023-03-23T04:15:10;24.80;;;24.00;;
3036;SDS011;1528;52.550;13.408;2023-03-23T04:17:55;23.03;;;22.30;;
3036;SDS011;1528;52.550;13.408;2023-03-23T04:20:42;21.10;;;20.40;;
3036;SDS011;1528;52.550;13.408;2023-03-23T04:23:29;26.47;;;25.67;;
3036;SDS011;1528;52.550;13.408;2023-03-23T04:26:17;19.60;;;19.00;;
3036;SDS011;1528;52.550;13.408;2023-03-23T04:29:02;15.97;;;15.17;;
3036;SDS011;1528;52.550;13.408;2023-03-23T04:31:50;26.60;;;25.70;;
3036;SDS011;1528;52.550;13.408;2023-03-23T04:34:36;17.17;;;16.50;;
3036;SDS011;1528;52.550;13.408;2023-03-23T04:37:22;17.10;;;16.43;;
3036;SDS011;1528;52.550;13.408;2023-03-23T04:40:12;13.77;;;13.23;;
3036;SDS011;1528;52.550;13.408;2023-03-23T04:42:59;18.13;;;17.53;;
3036;SDS011;1528;52.550;13.408;2023-03-23T04:45:51;14.73;;;14.23;;
3036;SDS011;1528;52.550;13.408;2023-03-23T04:48:40;16.33;;;15.73;;
3036;SDS011;1528;52.550;13.408;2023-03-23T04:51:26;14.87;;;14.27;;
3036;SDS011;1528;52.550;13.408;2023-03-23T04:54:13;17.50;;;16.90;;
3036;SDS011;1528;52.550;13.408;2023-03-23T04:56:59;13.23;;;12.60;;
3036;SDS011;1528;52.550;13.408;2023-03-23T04:59:44;13.70;;;13.20;;
3036;SDS011;1528;52.550;13.408;2023-03-23T05:02:30;15.50;;;14.90;;
3036;SDS011;1528;52.550;13.408;2023-03-23T05:05:19;16.70;;;15.90;;
3036;SDS011;1528;52.550;13.408;2023-03-23T05:08:06;16.47;;;15.77;;
3036;SDS011;1528;52.550;13.408;2023-03-23T05:10:52;14.90;;;14.30;;
3036;SDS011;1528;52.550;13.408;2023-03-23T05:13:39;17.37;;;16.77;;
3036;SDS011;1528;52.550;13.408;2023-03-23T05:16:25;16.03;;;15.43;;
3036;SDS011;1528;52.550;13.408;2023-03-23T05:19:12;16.47;;;15.87;;
3036;SDS011;1528;52.550;13.408;2023-03-23T05:21:59;17.23;;;16.63;;
3036;SDS011;1528;52.550;13.408;2023-03-23T05:24:46;16.87;;;16.27;;
3036;SDS011;1528;52.550;13.408;2023-03-23T05:27:35;17.70;;;17.00;;
3036;SDS011;1528;52.550;13.408;2023-03-23T05:30:21;16.67;;;15.97;;
3036;SDS011;1528;52.550;13.408;2023-03-23T05:33:06;14.57;;;13.97;;
3036;SDS011;1528;52.550;13.408;2023-03-23T05:35:52;17.73;;;16.80;;
3036;SDS011;1528;52.550;13.408;2023-03-23T05:38:39;15.73;;;15.03;;
3036;SDS011;1528;52.550;13.408;2023-03-23T05:41:28;14.23;;;13.60;;
3036;SDS011;1528;52.550;13.408;2023-03-23T05:44:14;14.33;;;13.83;;
3036;SDS011;1528;52.550;13.408;2023-03-23T05:47:00;14.93;;;14.17;;
3036;SDS011;1528;52.550;13.408;2023-03-23T05:49:45;17.70;;;13.97;;
3036;SDS011;1528;52.550;13.408;2023-03-23T05:52:31;13.60;;;13.00;;
3036;SDS011;1528;52.550;13.408;2023-03-23T05:55:20;14.37;;;13.53;;
3036;SDS011;1528;52.550;13.408;2023-03-23T05:58:05;13.10;;;12.60;;
3036;SDS011;1528;52.550;13.408;2023-03-23T06:00:51;12.60;;;11.47;;
3036;SDS011;1528;52.550;13.408;2023-03-23T06:03:37;15.43;;;14.63;;
3036;SDS011;1528;52.550;13.408;2023-03-23T06:06:22;13.07;;;12.43;;
3036;SDS011;1528;52.550;13.408;2023-03-23T06:09:08;13.30;;;12.60;;
3036;SDS011;1528;52.550;13.408;2023-03-23T06:11:55;12.33;;;11.73;;
3036;SDS011;1528;52.550;13.408;2023-03-23T06:14:40;13.53;;;12.30;;
3036;SDS011;1528;52.550;13.408;2023-03-23T06:17:26;16.37;;;15.40;;
3036;SDS011;1528;52.550;13.408;2023-03-23T06:20:12;14.60;;;13.60;;
3036;SDS011;1528;52.550;13.408;2023-03-23T06:22:58;15.97;;;14.93;;
3036;SDS011;1528;52.550;13.408;2023-03-23T06:25:44;15.80;;;15.03;;
3036;SDS011;1528;52.550;13.408;2023-03-23T06:28:31;12.40;;;12.00;;
3036;SDS011;1528;52.550;13.408;2023-03-23T06:31:17;14.10;;;13.50;;
3036;SDS011;1528;52.550;13.408;2023-03-23T06:34:04;12.40;;;11.90;;
3036;SDS011;1528;52.550;13.408;2023-03-23T06:36:50;11.83;;;11.20;;
3036;SDS011;1528;52.550;13.408;2023-03-23T06:39:35;12.67;;;11.77;;
3036;SDS011;1528;52.550;13.408;2023-03-23T06:42:22;13.80;;;13.10;;
3036;SDS011;1528;52.550;13.408;2023-03-23T06:45:10;12.63;;;11.93;;
3036;SDS011;1528;52.550;13.408;2023-03-23T06:47:56;13.57;;;12.97;;
3036;SDS011;1528;52.550;13.408;2023-03-23T06:50:42;13.73;;;13.13;;
3036;SDS011;1528;52.550;13.408;2023-03-23T06:53:28;13.60;;;12.80;;
3036;SDS011;1528;52.550;13.408;2023-03-23T06:56:13;15.50;;;14.90;;
3036;SDS011;1528;52.550;13.408;2023-03-23T06:58:59;14.83;;;13.97;;
3036;SDS011;1528;52.550;13.408;2023-03-23T07:01:46;13.00;;;12.43;;
3036;SDS011;1528;52.550;13.408;2023-03-23T07:04:31;13.53;;;13.03;;
3036;SDS011;1528;52.550;13.408;2023-03-23T07:07:17;14.10;;;13.53;;
3036;SDS011;1528;52.550;13.408;2023-03-23T07:10:03;17.20;;;16.60;;
3036;SDS011;1528;52.550;13.408;2023-03-23T07:12:50;13.20;;;12.63;;
3036;SDS011;1528;52.550;13.408;2023-03-23T07:15:35;14.43;;;13.83;;
3036;SDS011;1528;52.550;13.408;2023-03-23T07:18:23;14.60;;;14.00;;
3036;SDS011;1528;52.550;13.408;2023-03-23T07:21:08;14.83;;;14.33;;
3036;SDS011;1528;52.550;13.408;2023-03-23T07:23:55;15.50;;;14.70;;
3036;SDS011;1528;52.550;13.408;2023-03-23T07:26:40;18.83;;;18.03;;
3036;SDS011;1528;52.550;13.408;2023-03-23T07:29:26;15.30;;;14.70;;
3036;SDS011;1528;52.550;13.408;2023-03-23T07:32:11;15.23;;;14.60;;
3036;SDS011;1528;52.550;13.408;2023-03-23T07:34:58;13.37;;;12.67;;
3036;SDS011;1528;52.550;13.408;2023-03-23T07:37:44;18.50;;;17.90;;
3036;SDS011;1528;52.550;13.408;2023-03-23T07:40:32;16.50;;;15.50;;
3036;SDS011;1528;52.550;13.408;2023-03-23T07:43:18;18.97;;;17.93;;
3036;SDS011;1528;52.550;13.408;2023-03-23T07:46:04;20.07;;;19.20;;
3036;SDS011;1528;52.550;13.408;2023-03-23T07:48:50;17.83;;;17.13;;
3036;SDS011;1528;52.550;13.408;2023-03-23T07:51:37;15.30;;;14.70;;
3036;SDS011;1528;52.550;13.408;2023-03-23T07:54:23;16.40;;;15.60;;
3036;SDS011;1528;52.550;13.408;2023-03-23T07:57:08;17.40;;;16.80;;
3036;SDS011;1528;52.550;13.408;2023-03-23T07:59:54;15.43;;;14.93;;
3036;SDS011;1528;52.550;13.408;2023-03-23T08:02:40;13.40;;;12.80;;
3036;SDS011;1528;52.550;13.408;2023-03-23T08:05:26;13.87;;;13.27;;
3036;SDS011;1528;52.550;13.408;2023-03-23T08:08:13;15.10;;;14.40;;
3036;SDS011;1528;52.550;13.408;2023-03-23T08:10:59;12.17;;;11.53;;
3036;SDS011;1528;52.550;13.408;2023-03-23T08:13:45;16.50;;;15.80;;
3036;SDS011;1528;52.550;13.408;2023-03-23T08:16:31;16.77;;;15.87;;
3036;SDS011;1528;52.550;13.408;2023-03-23T08:19:17;12.73;;;12.20;;
3036;SDS011;1528;52.550;13.408;2023-03-23T08:22:03;14.33;;;13.83;;
3036;SDS011;1528;52.550;13.408;2023-03-23T08:24:50;12.90;;;12.23;;
3036;SDS011;1528;52.550;13.408;2023-03-23T08:27:36;15.77;;;15.17;;
3036;SDS011;1528;52.550;13.408;2023-03-23T08:30:26;16.93;;;16.33;;
3036;SDS011;1528;52.550;13.408;2023-03-23T08:33:13;16.83;;;16.23;;
3036;SDS011;1528;52.550;13.408;2023-03-23T08:35:59;15.50;;;14.90;;
3036;SDS011;1528;52.550;13.408;2023-03-23T08:38:46;14.93;;;14.30;;
3036;SDS011;1528;52.550;13.408;2023-03-23T08:41:36;16.63;;;16.13;;
3036;SDS011;1528;52.550;13.408;2023-03-23T08:44:22;14.83;;;14.33;;
3036;SDS011;1528;52.550;13.408;2023-03-23T08:47:07;19.30;;;18.60;;
3036;SDS011;1528;52.550;13.408;2023-03-23T08:49:53;16.63;;;15.93;;
3036;SDS011;1528;52.550;13.408;2023-03-23T08:52:39;16.90;;;16.00;;
3036;SDS011;1528;52.550;13.408;2023-03-23T08:55:25;16.67;;;16.07;;
3036;SDS011;1528;52.550;13.408;2023-03-23T08:58:12;16.50;;;15.90;;
3036;SDS011;1528;52.550;13.408;2023-03-23T09:00:57;18.07;;;17.37;;
3036;SDS011;1528;52.550;13.408;2023-03-23T09:03:43;18.40;;;17.60;;
3036;SDS011;1528;52.550;13.408;2023-03-23T09:06:29;18.40;;;17.73;;
3036;SDS011;1528;52.550;13.408;2023-03-23T09:09:16;19.70;;;18.83;;
3036;SDS011;1528;52.550;13.408;2023-03-23T09:12:02;18.03;;;17.20;;
3036;SDS011;1528;52.550;13.408;2023-03-23T09:14:50;18.80;;;18.10;;
3036;SDS011;1528;52.550;13.408;2023-03-23T09:17:35;18.23;;;17.23;;
3036;SDS011;1528;52.550;13.408;2023-03-23T09:20:23;19.90;;;19.00;;
3036;SDS011;1528;52.550;13.408;2023-03-23T09:23:10;24.37;;;22.87;;
3036;SDS011;1528;52.550;13.408;2023-03-23T09:25:57;24.03;;;23.13;;
3036;SDS011;1528;52.550;13.408;2023-03-23T09:28:44;20.60;;;19.67;;
3036;SDS011;1528;52.550;13.408;2023-03-23T09:31:31;28.37;;;27.07;;
3036;SDS011;1528;52.550;13.408;2023-03-23T09:34:16;21.67;;;20.87;;
3036;SDS011;1528;52.550;13.408;2023-03-23T09:37:02;21.07;;;20.37;;
3036;SDS011;1528;52.550;13.408;2023-03-23T09:39:48;21.80;;;21.00;;
3036;SDS011;1528;52.550;13.408;2023-03-23T09:42:36;25.40;;;24.50;;
3036;SDS011;1528;52.550;13.408;2023-03-23T09:45:33;24.30;;;23.43;;
3036;SDS011;1528;52.550;13.408;2023-03-23T09:48:33;18.80;;;18.20;;
3036;SDS011;1528;52.550;13.408;2023-03-23T09:51:39;22.50;;;21.80;;
3036;SDS011;1528;52.550;13.408;2023-03-23T09:54:30;20.10;;;19.47;;
3036;SDS011;1528;52.550;13.408;2023-03-23T09:57:22;19.70;;;19.10;;
3036;SDS011;1528;52.550;13.408;2023-03-23T10:00:15;22.67;;;21.87;;
3036;SDS011;1528;52.550;13.408;2023-03-23T10:03:05;23.37;;;22.63;;
3036;SDS011;1528;52.550;13.408;2023-03-23T10:06:00;24.17;;;23.37;;
3036;SDS011;1528;52.550;13.408;2023-03-23T10:08:47;19.23;;;18.63;;
3036;SDS011;1528;52.550;13.408;2023-03-23T10:11:38;12.47;;;11.97;;
3036;SDS011;1528;52.550;13.408;2023-03-23T10:14:39;18.93;;;18.23;;
3036;SDS011;1528;52.550;13.408;2023-03-23T10:17:40;19.50;;;18.90;;
3036;SDS011;1528;52.550;13.408;2023-03-23T10:20:33;17.07;;;16.57;;
3036;SDS011;1528;52.550;13.408;2023-03-23T10:23:36;16.00;;;15.47;;
3036;SDS011;1528;52.550;13.408;2023-03-23T10:26:35;20.00;;;19.20;;
3036;SDS011;1528;52.550;13.408;2023-03-23T10:29:26;22.90;;;22.10;;
3036;SDS011;1528;52.550;13.408;2023-03-23T10:32:15;23.80;;;23.20;;
3036;SDS011;1528;52.550;13.408;2023-03-23T10:35:05;25.00;;;24.30;;
3036;SDS011;1528;52.550;13.408;2023-03-23T10:37:58;21.00;;;20.40;;
3036;SDS011;1528;52.550;13.408;2023-03-23T10:40:49;23.30;;;22.50;;
3036;SDS011;1528;52.550;13.408;2023-03-23T10:43:38;16.50;;;16.00;;
3036;SDS011;1528;52.550;13.408;2023-03-23T10:46:27;16.63;;;16.10;;
3036;SDS011;1528;52.550;13.408;2023-03-23T10:49:19;15.30;;;14.80;;
3036;SDS011;1528;52.550;13.408;2023-03-23T10:52:14;13.97;;;13.57;;
3036;SDS011;1528;52.550;13.408;2023-03-23T10:55:16;15.93;;;15.23;;
3036;SDS011;1528;52.550;13.408;2023-03-23T10:58:04;14.13;;;13.63;;
3036;SDS011;1528;52.550;13.408;2023-03-23T11:00:51;13.93;;;13.40;;
3036;SDS011;1528;52.550;13.408;2023-03-23T11:03:38;16.20;;;15.43;;
3036;SDS011;1528;52.550;13.408;2023-03-23T11:06:26;14.60;;;14.00;;
3036;SDS011;1528;52.550;13.408;2023-03-23T11:09:15;12.93;;;12.43;;
3036;SDS011;1528;52.550;13.408;2023-03-23T11:12:02;15.47;;;14.87;;
3036;SDS011;1528;52.550;13.408;2023-03-23T11:14:49;13.70;;;13.30;;
3036;SDS011;1528;52.550;13.408;2023-03-23T11:17:35;14.10;;;13.60;;
3036;SDS011;1528;52.550;13.408;2023-03-23T11:20:21;14.17;;;13.67;;
3036;SDS011;1528;52.550;13.408;2023-03-23T11:23:08;13.80;;;13.30;;
3036;SDS011;1528;52.550;13.408;2023-03-23T11:25:58;16.47;;;15.83;;
3036;SDS011;1528;52.550;13.408;2023-03-23T11:28:46;16.20;;;15.43;;
3036;SDS011;1528;52.550;13.408;2023-03-23T11:31:38;16.30;;;15.70;;
3036;SDS011;1528;52.550;13.408;2023-03-23T11:34:25;14.40;;;13.87;;
3036;SDS011;1528;52.550;13.408;2023-03-23T11:37:18;16.73;;;16.13;;
3036;SDS011;1528;52.550;13.408;2023-03-23T11:40:14;16.93;;;16.33;;
3036;SDS011;1528;52.550;13.408;2023-03-23T11:43:07;15.43;;;14.93;;
3036;SDS011;1528;52.550;13.408;2023-03-23T11:45:58;13.20;;;12.80;;
3036;SDS011;1528;52.550;13.408;2023-03-23T11:48:52;16.70;;;16.20;;
3036;SDS011;1528;52.550;13.408;2023-03-23T11:51:42;15.93;;;15.43;;
3036;SDS011;1528;52.550;13.408;2023-03-23T11:54:33;16.27;;;15.67;;
3036;SDS011;1528;52.550;13.408;2023-03-23T11:57:28;16.03;;;15.50;;
3036;SDS011;1528;52.550;13.408;2023-03-23T12:00:15;18.20;;;17.47;;
3036;SDS011;1528;52.550;13.408;2023-03-23T12:06:10;16.90;;;16.30;;
3036;SDS011;1528;52.550;13.408;2023-03-23T12:08:59;14.33;;;13.77;;
3036;SDS011;1528;52.550;13.408;2023-03-23T12:11:58;17.40;;;16.80;;
3036;SDS011;1528;52.550;13.408;2023-03-23T12:14:56;18.10;;;17.40;;
3036;SDS011;1528;52.550;13.408;2023-03-23T12:17:50;17.20;;;16.50;;
3036;SDS011;1528;52.550;13.408;2023-03-23T12:20:44;15.13;;;14.50;;
3036;SDS011;1528;52.550;13.408;2023-03-23T12:23:39;15.37;;;14.87;;
3036;SDS011;1528;52.550;13.408;2023-03-23T12:26:29;16.70;;;16.10;;
3036;SDS011;1528;52.550;13.408;2023-03-23T12:29:41;16.00;;;15.43;;
3036;SDS011;1528;52.550;13.408;2023-03-23T12:32:42;18.63;;;17.93;;
3036;SDS011;1528;52.550;13.408;2023-03-23T12:35:40;19.67;;;18.87;;
3036;SDS011;1528;52.550;13.408;2023-03-23T12:38:40;19.77;;;19.10;;
3036;SDS011;1528;52.550;13.408;2023-03-23T12:41:37;13.90;;;13.40;;
3036;SDS011;1528;52.550;13.408;2023-03-23T12:44:31;18.03;;;17.37;;
3036;SDS011;1528;52.550;13.408;2023-03-23T12:47:30;16.97;;;16.37;;
3036;SDS011;1528;52.550;13.408;2023-03-23T12:50:23;16.40;;;15.70;;
3036;SDS011;1528;52.550;13.408;2023-03-23T12:53:15;16.37;;;15.77;;
3036;SDS011;1528;52.550;13.408;2023-03-23T12:56:09;16.37;;;15.77;;
3036;SDS011;1528;52.550;13.408;2023-03-23T12:59:05;16.67;;;16.07;;
3036;SDS011;1528;52.550;13.408;2023-03-23T13:01:58;17.73;;;17.13;;
3036;SDS011;1528;52.550;13.408;2023-03-23T13:04:50;20.00;;;19.30;;
3036;SDS011;1528;52.550;13.408;2023-03-23T13:07:42;17.13;;;16.53;;
3036;SDS011;1528;52.550;13.408;2023-03-23T13:10:32;19.83;;;19.10;;
3036;SDS011;1528;52.550;13.408;2023-03-23T13:13:23;16.33;;;15.83;;
3036;SDS011;1528;52.550;13.408;2023-03-23T13:16:11;17.70;;;17.00;;
3036;SDS011;1528;52.550;13.408;2023-03-23T13:19:04;15.73;;;15.20;;
3036;SDS011;1528;52.550;13.408;2023-03-23T13:21:58;16.13;;;15.63;;
3036;SDS011;1528;52.550;13.408;2023-03-23T13:24:50;14.83;;;14.23;;
3036;SDS011;1528;52.550;13.408;2023-03-23T13:27:38;13.10;;;12.60;;
3036;SDS011;1528;52.550;13.408;2023-03-23T13:30:27;16.40;;;15.80;;
3036;SDS011;1528;52.550;13.408;2023-03-23T13:33:14;14.60;;;14.00;;
3036;SDS011;1528;52.550;13.408;2023-03-23T13:36:02;15.57;;;15.03;;
3036;SDS011;1528;52.550;13.408;2023-03-23T13:38:59;15.47;;;14.90;;
3036;SDS011;1528;52.550;13.408;2023-03-23T13:41:48;15.50;;;15.00;;
3036;SDS011;1528;52.550;13.408;2023-03-23T13:44:44;12.70;;;12.30;;
3036;SDS011;1528;52.550;13.408;2023-03-23T13:47:42;14.33;;;13.80;;
3036;SDS011;1528;52.550;13.408;2023-03-23T13:50:30;13.27;;;12.77;;
3036;SDS011;1528;52.550;13.408;2023-03-23T13:53:29;13.37;;;12.80;;
3036;SDS011;1528;52.550;13.408;2023-03-23T13:56:17;15.10;;;14.33;;
3036;SDS011;1528;52.550;13.408;2023-03-23T13:59:05;13.17;;;12.67;;
3036;SDS011;1528;52.550;13.408;2023-03-23T14:01:52;15.77;;;15.27;;
3036;SDS011;1528;52.550;13.408;2023-03-23T14:04:40;17.63;;;16.93;;
3036;SDS011;1528;52.550;13.408;2023-03-23T14:07:25;16.50;;;15.80;;
3036;SDS011;1528;52.550;13.408;2023-03-23T14:10:14;13.60;;;13.10;;
3036;SDS011;1528;52.550;13.408;2023-03-23T14:13:02;16.53;;;16.03;;
3036;SDS011;1528;52.550;13.408;2023-03-23T14:15:57;16.87;;;16.17;;
3036;SDS011;1528;52.550;13.408;2023-03-23T14:18:48;18.43;;;17.73;;
3036;SDS011;1528;52.550;13.408;2023-03-23T14:21:40;14.50;;;13.90;;
3036;SDS011;1528;52.550;13.408;2023-03-23T14:24:27;14.63;;;13.97;;
3036;SDS011;1528;52.550;13.408;2023-03-23T14:27:14;14.90;;;14.30;;
3036;SDS011;1528;52.550;13.408;2023-03-23T14:30:02;15.13;;;14.53;;
3036;SDS011;1528;52.550;13.408;2023-03-23T14:32:50;14.43;;;13.87;;
3036;SDS011;1528;52.550;13.408;2023-03-23T14:35:37;14.70;;;14.20;;
3036;SDS011;1528;52.550;13.408;2023-03-23T14:38:27;14.30;;;13.80;;
3036;SDS011;1528;52.550;13.408;2023-03-23T14:41:15;12.63;;;12.13;;
3036;SDS011;1528;52.550;13.408;2023-03-23T14:44:00;13.47;;;12.77;;
3036;SDS011;1528;52.550;13.408;2023-03-23T14:46:47;12.80;;;12.10;;
3036;SDS011;1528;52.550;13.408;2023-03-23T14:49:35;11.47;;;11.07;;
3036;SDS011;1528;52.550;13.408;2023-03-23T14:52:24;12.67;;;12.20;;
3036;SDS011;1528;52.550;13.408;2023-03-23T14:55:13;14.17;;;13.57;;
3036;SDS011;1528;52.550;13.408;2023-03-23T14:58:08;13.60;;;12.90;;
3036;SDS011;1528;52.550;13.408;2023-03-23T15:00:58;16.10;;;15.50;;
3036;SDS011;1528;52.550;13.408;2023-03-23T15:03:51;15.00;;;14.37;;
3036;SDS011;1528;52.550;13.408;2023-03-23T15:06:39;12.10;;;11.63;;
3036;SDS011;1528;52.550;13.408;2023-03-23T15:09:26;13.90;;;13.50;;
3036;SDS011;1528;52.550;13.408;2023-03-23T15:12:19;15.50;;;14.97;;
3036;SDS011;1528;52.550;13.408;2023-03-23T15:15:07;14.63;;;14.13;;
3036;SDS011;1528;52.550;13.408;2023-03-23T15:18:04;15.43;;;14.90;;
3036;SDS011;1528;52.550;13.408;2023-03-23T15:20:50;16.47;;;15.90;;
3036;SDS011;1528;52.550;13.408;2023-03-23T15:23:40;16.60;;;15.93;;
3036;SDS011;1528;52.550;13.408;2023-03-23T15:26:28;20.27;;;19.67;;
3036;SDS011;1528;52.550;13.408;2023-03-23T15:29:19;19.87;;;19.27;;
3036;SDS011;1528;52.550;13.408;2023-03-23T15:32:09;17.23;;;16.70;;
3036;SDS011;1528;52.550;13.408;2023-03-23T15:34:56;19.80;;;19.10;;
3036;SDS011;1528;52.550;13.408;2023-03-23T15:37:44;22.67;;;21.93;;
3036;SDS011;1528;52.550;13.408;2023-03-23T15:40:34;28.00;;;27.20;;
3036;SDS011;1528;52.550;13.408;2023-03-23T15:43:22;19.60;;;19.00;;
3036;SDS011;1528;52.550;13.408;2023-03-23T15:46:20;23.20;;;22.33;;
3036;SDS011;1528;52.550;13.408;2023-03-23T15:49:07;30.37;;;29.47;;
3036;SDS011;1528;52.550;13.408;2023-03-23T15:51:57;26.20;;;25.40;;
3036;SDS011;1528;52.550;13.408;2023-03-23T15:54:47;14.93;;;14.50;;
3036;SDS011;1528;52.550;13.408;2023-03-23T15:57:33;18.73;;;17.97;;
3036;SDS011;1528;52.550;13.408;2023-03-23T16:00:20;12.43;;;12.03;;
3036;SDS011;1528;52.550;13.408;2023-03-23T16:03:10;23.03;;;22.23;;
3036;SDS011;1528;52.550;13.408;2023-03-23T16:05:58;22.87;;;21.90;;
3036;SDS011;1528;52.550;13.408;2023-03-23T16:08:46;17.97;;;17.27;;
3036;SDS011;1528;52.550;13.408;2023-03-23T16:11:31;15.30;;;14.70;;
3036;SDS011;1528;52.550;13.408;2023-03-23T16:14:17;12.13;;;11.53;;
3036;SDS011;1528;52.550;13.408;2023-03-23T16:17:03;12.10;;;11.70;;
3036;SDS011;1528;52.550;13.408;2023-03-23T16:19:50;14.67;;;14.07;;
3036;SDS011;1528;52.550;13.408;2023-03-23T16:22:35;13.67;;;13.27;;
3036;SDS011;1528;52.550;13.408;2023-03-23T16:25:21;17.60;;;16.90;;
3036;SDS011;1528;52.550;13.408;2023-03-23T16:28:08;18.20;;;17.40;;
3036;SDS011;1528;52.550;13.408;2023-03-23T16:30:55;15.63;;;15.13;;
3036;SDS011;1528;52.550;13.408;2023-03-23T16:33:40;15.47;;;14.97;;
3036;SDS011;1528;52.550;13.408;2023-03-23T16:36:27;17.13;;;16.43;;
3036;SDS011;1528;52.550;13.408;2023-03-23T16:39:13;17.23;;;16.53;;
3036;SDS011;1528;52.550;13.408;2023-03-23T16:42:01;16.53;;;15.80;;
3036;SDS011;1528;52.550;13.408;2023-03-23T16:44:47;19.20;;;18.30;;
3036;SDS011;1528;52.550;13.408;2023-03-23T16:47:33;18.87;;;17.90;;